Wednesday, November 22, 2017, 11:37 AM EST
Back to Local

KISP, Islip Long Island Mac Art

Location: Ronkonkoma, NY, United States Lat: 40.8
Local Time: 11:37 AM EST (16:37 GMT) Lon: -73.1
Time Zone: US/Eastern Elev: 98 ft

Show me the last for .
Show Decoded

2017-11-22 10:56 METAR KISP 221556Z 30010KT 7SM -RA BKN010 OVC050 12/11 A2987 RMK AO2 SLP115
                 P0003 T01170111 =
2017-11-22 10:28 METAR KISP 221528Z 32008KT 5SM -RA BR SCT008 BKN012 OVC050 13/12 A2987 RMK AO2
                 P0003 T01280122 =
2017-11-22 09:56 METAR KISP 221456Z 30005KT 4SM -RA BR BKN004 OVC009 13/13 A2988 RMK AO2 SLP117
                 P0008 60029 T01280128 56014 =
2017-11-22 09:14 METAR KISP 221414Z 22008KT 2SM -RA BR OVC004 13/13 A2989 RMK AO2 SFC VIS 3 P0002
                 T01280128 =
2017-11-22 08:56 METAR KISP 221356Z 21007KT 2 1/2SM -RA BR FEW005 SCT015 OVC027 13/13 A2989 RMK
                 AO2 SFC VIS 3 SLP119 P0011 T01280128 =
2017-11-22 07:56 METAR KISP 221256Z 22004KT 2 1/2SM -RA BR FEW005 BKN055 OVC065 12/12 A2990 RMK
                 AO2 SFC VIS 3 SLP125 P0010 T01220122 =
2017-11-22 06:56 METAR KISP 221156Z 20005KT 2 1/2SM -RA BR SCT005 SCT035 OVC065 13/13 A2992 RMK
                 AO2 SFC VIS 5 SLP131 P0008 60048 70048 T01280128 10128 20100 56008 =
2017-11-22 06:54 METAR KISP 221154Z 20006KT 6SM -RA BR SCT005 SCT035 OVC065 13/13 A2992 RMK AO2
                 P0008 =
2017-11-22 05:56 METAR KISP 221056Z 25003KT 4SM -RA BR BKN055 OVC070 12/12 A2991 RMK AO2 SLP129
                 P0015 T01220122 =
2017-11-22 04:56 METAR KISP 220956Z AUTO 21011KT 5SM RA BR FEW045 OVC070 13/12 A2994 RMK AO2
                 SLP139 P0014 T01280117 =
2017-11-22 03:56 METAR KISP 220856Z AUTO 18005KT 6SM -RA BR FEW045 BKN060 OVC075 13/12 A2997 RMK
                 AO2 SLP147 P0009 60011 T01280122 56017 =
2017-11-22 02:56 METAR KISP 220756Z AUTO 17003KT 10SM -RA FEW046 OVC065 11/10 A2998 RMK AO2 RAB20
                 SLP153 P0002 T01110100 =
2017-11-22 01:56 METAR KISP 220656Z AUTO 00000KT 10SM SCT049 BKN060 OVC090 11/08 A3000 RMK AO2
                 RAB46E55 SLP158 P0000 T01060083 =
2017-11-22 00:56 METAR KISP 220556Z AUTO 22003KT 10SM FEW048 OVC080 11/09 A3002 RMK AO2 SLP164
                 T01060089 10128 20106 58013 =
2017-11-21 23:56 METAR KISP 220456Z 23004KT 10SM BKN045 BKN060 BKN250 12/10 A3003 RMK AO2 SLP170
                 LAST T01170100 401390044 =
2017-11-21 22:56 METAR KISP 220356Z 23007KT 10SM BKN043 BKN250 12/09 A3004 RMK AO2 SLP173
                 T01220094 =
2017-11-21 21:56 METAR KISP 220256Z 22008KT 10SM BKN250 12/08 A3006 RMK AO2 SLP177 T01170083
                 58002 =
2017-11-21 20:56 METAR KISP 220156Z 22009KT 10SM BKN250 12/08 A3006 RMK AO2 SLP178 T01170078 =
2017-11-21 19:56 METAR KISP 220056Z 22013KT 10SM BKN250 12/08 A3006 RMK AO2 SLP181 T01220078 =
2017-11-21 18:56 METAR KISP 212356Z 22012KT 10SM BKN250 13/07 A3006 RMK AO2 SLP180 T01280067
                 10139 20117 53009 =
2017-11-21 17:56 METAR KISP 212256Z 21014G21KT 10SM BKN250 12/07 A3005 RMK AO2 SLP175 T01220067 =
2017-11-21 16:56 METAR KISP 212156Z 21012KT 10SM BKN250 12/05 A3005 RMK AO2 SLP175 T01220050 =
2017-11-21 15:56 METAR KISP 212056Z 20011G17KT 10SM FEW200 BKN250 12/04 A3004 RMK AO2 SLP171
                 T01170044 57013 =
2017-11-21 14:56 METAR KISP 211956Z 21017G23KT 10SM FEW200 BKN250 13/04 A3005 RMK AO2 PK WND
                 21027/1922 SLP177 T01280039 =
2017-11-21 13:56 METAR KISP 211856Z 20017G24KT 10SM BKN250 14/03 A3006 RMK AO2 PK WND 21028/1823
                 SLP179 T01390033 =
2017-11-21 12:56 METAR KISP 211756Z 21014G25KT 10SM BKN250 14/03 A3007 RMK AO2 PK WND 21029/1724
                 SLP184 T01390033 10139 20056 58023 =
2017-11-21 11:56 METAR KISP 211656Z 21019G24KT 10SM FEW170 BKN250 13/02 A3010 RMK AO2 PK WND
                 23027/1635 SLP193 T01330017 =

Support USWX by starting your Amazon purchase here.